SVMI/CCS METAR and TAF weather

Enter ICAO airport designator
Station Type Date Time Source
SVMI METAR 2021/09/24 02:00 UTC NOAA

SVMI 240200Z 05005KT 9999 SCT016 26/23 Q1010


Station Type Date Time Source
SVMI Decoded METAR 2021/09/24 02:00 UTC NOAA

Caracas / Maiquetia Aerop. Intl. Simon Bolivar, Venezuela (SVMI) 10-36N 066-59W 48M
Sep 23, 2021 - 10:00 PM EDT / 2021.09.24 0200 UTC
Wind: from the NE (050 degrees) at 6 MPH (5 KT):0
Visibility: greater than 7 mile(s):0
Sky conditions: partly cloudy
Temperature: 78 F (26 C)
Dew Point: 73 F (23 C)
Relative Humidity: 83%
Pressure (altimeter): 29.83 in. Hg (1010 hPa)
ob: SVMI 240200Z 05005KT 9999 SCT016 26/23 Q1010
cycle: 2

Station Type Date Time Source
SVMI TAF 2021/09/23 18:04 UTC NOAA

TAF SVMI 231600Z 2318/2418 09008KT 9999 FEW016 TX32/2317Z TN24/2408Z
BECMG 2318/2322 14004KT FEW016 SCT100

Example: see airport list